createdAt,value
2019-02-21T00:00:41.217Z,0.00
2019-02-21T00:01:41.405Z,0.00
2019-02-21T00:02:41.117Z,0.00
2019-02-21T00:03:41.077Z,0.00
2019-02-21T00:04:41.068Z,0.00
2019-02-21T00:05:40.967Z,0.00
2019-02-21T00:06:41.092Z,0.00
2019-02-21T00:07:40.863Z,0.00
2019-02-21T00:08:40.814Z,0.00
2019-02-21T00:09:40.795Z,0.00
2019-02-21T00:10:40.760Z,0.00
2019-02-21T00:11:40.915Z,0.00
2019-02-21T00:12:40.612Z,0.00
2019-02-21T00:13:40.561Z,0.00
2019-02-21T00:14:40.542Z,0.00
2019-02-21T00:15:40.460Z,0.00
2019-02-21T00:16:40.610Z,0.00
2019-02-21T00:17:40.361Z,0.00
2019-02-21T00:18:40.423Z,0.00
2019-02-21T00:19:40.360Z,0.00
2019-02-21T00:20:40.211Z,0.00
2019-02-21T00:21:40.312Z,0.00
2019-02-21T00:22:40.107Z,0.00
2019-02-21T00:23:40.057Z,0.00
2019-02-21T00:24:40.188Z,0.00
2019-02-21T00:25:39.955Z,0.00
2019-02-21T00:26:40.110Z,0.00
2019-02-21T00:27:39.856Z,0.00
2019-02-21T00:28:39.805Z,0.00
2019-02-21T00:29:39.818Z,0.00
2019-02-21T00:30:39.706Z,0.00
2019-02-21T00:31:40.256Z,0.00
2019-02-21T00:32:39.602Z,0.00
2019-02-21T00:33:39.560Z,0.00
2019-02-21T00:34:39.536Z,0.00
2019-02-21T00:35:39.470Z,0.00
2019-02-21T00:36:39.625Z,0.00
2019-02-21T00:37:39.351Z,0.00
2019-02-21T00:38:39.304Z,0.00
2019-02-21T00:39:39.370Z,0.00
2019-02-21T00:40:39.201Z,0.00
2019-02-21T00:41:39.329Z,0.00
2019-02-21T00:42:39.129Z,0.00
2019-02-21T00:43:39.048Z,0.00
2019-02-21T00:44:39.104Z,0.00
2019-02-21T00:45:38.947Z,0.00
2019-02-21T00:46:39.128Z,0.00
2019-02-21T00:47:38.843Z,0.00
2019-02-21T00:48:38.793Z,0.00
2019-02-21T00:49:38.823Z,0.00
2019-02-21T00:50:38.697Z,0.00
2019-02-21T00:51:38.829Z,0.00
2019-02-21T00:52:38.598Z,0.00
2019-02-21T00:53:38.545Z,0.00
2019-02-21T00:54:38.524Z,0.00
2019-02-21T00:55:38.436Z,0.00
2019-02-21T00:56:38.626Z,0.00
2019-02-21T00:57:38.340Z,0.00
2019-02-21T00:58:38.302Z,0.00
2019-02-21T00:59:38.287Z,0.00
2019-02-21T01:00:46.191Z,0.00
2019-02-21T01:01:38.167Z,0.00
2019-02-21T01:02:38.087Z,0.00
2019-02-21T01:03:38.234Z,0.00
2019-02-21T01:04:37.989Z,0.00
2019-02-21T01:05:37.935Z,0.00
2019-02-21T01:06:38.019Z,0.00
2019-02-21T01:07:37.850Z,0.00
2019-02-21T01:08:37.937Z,0.00
2019-02-21T01:09:37.735Z,0.00
2019-02-21T01:10:37.686Z,0.00
2019-02-21T01:11:37.663Z,0.00
2019-02-21T01:12:37.583Z,0.00
2019-02-21T01:13:37.739Z,0.00
2019-02-21T01:14:37.484Z,0.00
2019-02-21T01:15:37.434Z,0.00
2019-02-21T01:16:37.460Z,0.00
2019-02-21T01:17:37.335Z,0.00
2019-02-21T01:18:37.309Z,0.00
2019-02-21T01:19:37.227Z,0.00
2019-02-21T01:20:37.336Z,0.00
2019-02-21T01:21:37.125Z,0.00
2019-02-21T01:22:37.080Z,0.00
2019-02-21T01:23:37.108Z,0.00
2019-02-21T01:24:36.975Z,0.00
2019-02-21T01:25:37.174Z,0.00
2019-02-21T01:26:36.883Z,0.00
2019-02-21T01:27:36.822Z,0.00
2019-02-21T01:28:36.834Z,0.00
2019-02-21T01:29:36.723Z,0.00
2019-02-21T01:30:36.848Z,0.00
2019-02-21T01:31:36.624Z,0.00
2019-02-21T01:32:36.574Z,0.00
2019-02-21T01:33:36.556Z,0.00
2019-02-21T01:34:36.471Z,0.00
2019-02-21T01:35:36.658Z,0.00
2019-02-21T01:36:36.368Z,0.00
2019-02-21T01:37:36.319Z,0.00
2019-02-21T01:38:36.389Z,0.00
2019-02-21T01:39:36.218Z,0.00
2019-02-21T01:40:36.368Z,0.00
2019-02-21T01:41:36.120Z,0.00
2019-02-21T01:42:36.066Z,0.00
2019-02-21T01:43:36.119Z,0.00
2019-02-21T01:44:35.962Z,0.00
2019-02-21T01:45:36.062Z,0.00
2019-02-21T01:46:35.864Z,0.00
2019-02-21T01:47:35.857Z,0.00
2019-02-21T01:48:35.822Z,0.00
2019-02-21T01:49:35.714Z,0.00
2019-02-21T01:50:35.876Z,0.00
2019-02-21T01:51:35.614Z,0.00
2019-02-21T01:52:35.557Z,0.00
2019-02-21T01:53:35.534Z,0.00
2019-02-21T01:54:35.457Z,0.00
2019-02-21T01:55:35.570Z,0.00
2019-02-21T01:56:35.357Z,0.00
2019-02-21T01:57:35.303Z,0.00
2019-02-21T01:58:35.289Z,0.00
2019-02-21T01:59:35.202Z,0.00
2019-02-21T02:00:35.380Z,0.00
2019-02-21T02:01:35.101Z,0.00
2019-02-21T02:02:35.055Z,0.00
2019-02-21T02:03:35.124Z,0.00
2019-02-21T02:04:34.954Z,0.00
2019-02-21T02:05:35.067Z,0.00
2019-02-21T02:06:34.853Z,0.00
2019-02-21T02:07:34.796Z,0.00
2019-02-21T02:08:34.856Z,0.00
2019-02-21T02:09:34.696Z,0.00
2019-02-21T02:10:34.880Z,0.00
2019-02-21T02:11:34.593Z,0.00
2019-02-21T02:12:34.546Z,0.00
2019-02-21T02:13:34.526Z,0.00
2019-02-21T02:14:34.476Z,0.00
2019-02-21T02:15:34.575Z,0.00
2019-02-21T02:16:34.342Z,0.00
2019-02-21T02:17:34.291Z,0.00
2019-02-21T02:18:34.313Z,0.00
2019-02-21T02:19:34.188Z,0.00
2019-02-21T02:20:34.296Z,0.00
2019-02-21T02:21:34.086Z,0.00
2019-02-21T02:22:34.151Z,0.00
2019-02-21T02:23:34.031Z,0.00
2019-02-21T02:24:33.931Z,0.00
2019-02-21T02:25:34.083Z,0.00
2019-02-21T02:26:33.832Z,0.00
2019-02-21T02:27:33.780Z,0.00
2019-02-21T02:28:33.753Z,0.00
2019-02-21T02:29:33.680Z,0.00
2019-02-21T02:30:33.785Z,0.00
2019-02-21T02:31:33.583Z,0.00
2019-02-21T02:32:33.529Z,0.00
2019-02-21T02:33:33.508Z,0.00
2019-02-21T02:34:33.432Z,0.00
2019-02-21T02:35:33.589Z,0.00
2019-02-21T02:36:33.335Z,0.00
2019-02-21T02:37:33.275Z,0.00
2019-02-21T02:38:33.315Z,0.00
2019-02-21T02:39:33.169Z,0.00
2019-02-21T02:40:33.290Z,0.00
2019-02-21T02:41:33.067Z,0.00
2019-02-21T02:42:33.124Z,0.00
2019-02-21T02:43:33.198Z,0.00
2019-02-21T02:44:32.920Z,0.00
2019-02-21T02:45:32.868Z,0.00
2019-02-21T02:46:32.854Z,0.00
2019-02-21T02:47:32.762Z,0.00
2019-02-21T02:48:32.908Z,0.00
2019-02-21T02:49:32.663Z,0.00
2019-02-21T02:50:32.648Z,0.00
2019-02-21T02:51:32.590Z,0.00
2019-02-21T02:52:32.510Z,0.00
2019-02-21T02:53:32.699Z,0.00
2019-02-21T02:54:32.410Z,0.00
2019-02-21T02:55:32.358Z,0.00
2019-02-21T02:56:32.410Z,0.00
2019-02-21T02:57:32.256Z,0.00
2019-02-21T02:58:32.381Z,0.00
2019-02-21T02:59:40.355Z,0.00
2019-02-21T03:00:32.299Z,0.00
2019-02-21T03:01:35.072Z,0.00
2019-02-21T03:02:32.002Z,0.00
2019-02-21T03:03:32.049Z,0.00
2019-02-21T03:04:31.899Z,0.00
2019-02-21T03:05:31.998Z,0.00
2019-02-21T03:06:31.796Z,0.00
2019-02-21T03:07:31.745Z,0.00
2019-02-21T03:08:31.730Z,0.00
2019-02-21T03:09:31.669Z,0.00
2019-02-21T03:10:31.824Z,0.00
2019-02-21T03:11:31.543Z,0.00
2019-02-21T03:12:31.491Z,0.00
2019-02-21T03:13:31.477Z,0.00
2019-02-21T03:14:31.387Z,0.00
2019-02-21T03:15:31.533Z,0.00
2019-02-21T03:16:31.285Z,0.00
2019-02-21T03:17:31.235Z,0.00
2019-02-21T03:18:31.226Z,0.00
2019-02-21T03:19:31.133Z,0.00
2019-02-21T03:20:31.323Z,0.00
2019-02-21T03:21:31.028Z,0.00
2019-02-21T03:22:30.979Z,0.00
2019-02-21T03:23:30.955Z,0.00
2019-02-21T03:24:30.876Z,0.00
2019-02-21T03:25:31.027Z,0.00
2019-02-21T03:26:30.773Z,0.00
2019-02-21T03:27:30.722Z,0.00
2019-02-21T03:28:30.689Z,0.00
2019-02-21T03:29:30.619Z,0.00
2019-02-21T03:30:30.728Z,0.00
2019-02-21T03:31:30.526Z,0.00
2019-02-21T03:32:30.465Z,0.00
2019-02-21T03:33:30.513Z,0.00
2019-02-21T03:34:30.363Z,0.00
2019-02-21T03:35:30.538Z,0.00
2019-02-21T03:36:30.279Z,0.00
2019-02-21T03:37:30.267Z,0.00
2019-02-21T03:38:34.863Z,0.00
2019-02-21T03:39:30.106Z,0.00
2019-02-21T03:40:30.238Z,0.00
2019-02-21T03:41:30.015Z,0.00
2019-02-21T03:42:29.951Z,0.00
2019-02-21T03:43:29.962Z,0.00
2019-02-21T03:44:29.850Z,0.00
2019-02-21T03:45:30.046Z,0.00
2019-02-21T03:46:29.747Z,0.00
2019-02-21T03:47:29.694Z,0.00
2019-02-21T03:48:29.673Z,0.00
2019-02-21T03:49:29.599Z,0.00
2019-02-21T03:50:29.751Z,0.00
2019-02-21T03:51:29.489Z,0.00
2019-02-21T03:52:29.440Z,0.00
2019-02-21T03:53:29.419Z,0.00
2019-02-21T03:54:29.338Z,0.00
2019-02-21T03:55:29.449Z,0.00
2019-02-21T03:56:29.230Z,0.00
2019-02-21T03:57:29.180Z,0.00
2019-02-21T03:58:29.244Z,0.00
2019-02-21T03:59:29.086Z,0.00
2019-02-21T04:00:29.236Z,0.00
2019-02-21T04:01:28.981Z,0.00
2019-02-21T04:02:28.922Z,0.00
2019-02-21T04:03:28.970Z,0.00
2019-02-21T04:04:28.819Z,0.00
2019-02-21T04:05:28.953Z,0.00
2019-02-21T04:06:28.718Z,0.00
2019-02-21T04:07:28.664Z,0.00
2019-02-21T04:08:28.642Z,0.00
2019-02-21T04:09:28.561Z,0.00
2019-02-21T04:10:28.752Z,0.00
2019-02-21T04:11:28.460Z,0.00
2019-02-21T04:12:28.407Z,0.00
2019-02-21T04:13:28.429Z,0.00
2019-02-21T04:14:28.310Z,0.00
2019-02-21T04:15:28.455Z,0.00
2019-02-21T04:16:28.202Z,0.00
2019-02-21T04:17:28.150Z,0.00
2019-02-21T04:18:28.150Z,0.00
2019-02-21T04:19:28.046Z,0.00
2019-02-21T04:20:28.147Z,0.00
2019-02-21T04:21:27.943Z,0.00
2019-02-21T04:22:27.896Z,0.00
2019-02-21T04:23:27.882Z,0.00
2019-02-21T04:24:27.790Z,0.00
2019-02-21T04:25:27.951Z,0.00
2019-02-21T04:26:27.686Z,0.00
2019-02-21T04:27:27.631Z,0.00
2019-02-21T04:28:27.612Z,0.00
2019-02-21T04:29:27.529Z,0.00
2019-02-21T04:30:27.667Z,0.00
2019-02-21T04:31:27.426Z,0.00
2019-02-21T04:32:27.375Z,0.00
2019-02-21T04:33:27.433Z,0.00
2019-02-21T04:34:27.274Z,0.00
2019-02-21T04:35:27.362Z,0.00
2019-02-21T04:36:27.169Z,0.00
2019-02-21T04:37:27.119Z,0.00
2019-02-21T04:38:27.160Z,0.00
2019-02-21T04:39:27.018Z,0.00
2019-02-21T04:40:27.166Z,0.00
2019-02-21T04:41:26.912Z,0.00
2019-02-21T04:42:26.862Z,0.00
2019-02-21T04:43:26.888Z,0.00
2019-02-21T04:44:26.759Z,0.00
2019-02-21T04:45:26.875Z,0.00
2019-02-21T04:46:26.656Z,0.00
2019-02-21T04:47:26.608Z,0.00
2019-02-21T04:48:26.585Z,0.00
2019-02-21T04:49:26.497Z,0.00
2019-02-21T04:50:26.672Z,0.00
2019-02-21T04:51:26.402Z,0.00
2019-02-21T04:52:26.348Z,0.00
2019-02-21T04:53:26.343Z,0.00
2019-02-21T04:54:26.241Z,0.00
2019-02-21T04:55:26.383Z,0.00
2019-02-21T04:56:26.139Z,0.00
2019-02-21T04:57:26.087Z,0.00
2019-02-21T04:58:26.070Z,0.00
2019-02-21T04:59:25.987Z,0.00
2019-02-21T05:00:26.082Z,0.00
2019-02-21T05:01:25.881Z,0.00
2019-02-21T05:02:28.889Z,0.00
2019-02-21T05:03:25.790Z,0.00
2019-02-21T05:04:25.733Z,0.00
2019-02-21T05:05:25.903Z,0.00
2019-02-21T05:06:25.623Z,0.00
2019-02-21T05:07:25.573Z,0.00
2019-02-21T05:08:25.623Z,0.00
2019-02-21T05:09:27.149Z,0.00
2019-02-21T05:10:25.588Z,0.00
2019-02-21T05:11:25.366Z,0.00
2019-02-21T05:12:25.315Z,0.00
2019-02-21T05:13:25.348Z,0.00
2019-02-21T05:14:25.244Z,0.00
2019-02-21T05:15:25.408Z,0.00
2019-02-21T05:16:25.111Z,0.00
2019-02-21T05:17:25.057Z,0.00
2019-02-21T05:18:25.075Z,0.00
2019-02-21T05:19:24.957Z,0.00
2019-02-21T05:20:25.093Z,0.00
2019-02-21T05:21:24.853Z,0.00
2019-02-21T05:22:24.800Z,0.00
2019-02-21T05:23:24.780Z,0.00
2019-02-21T05:24:24.698Z,0.00
2019-02-21T05:25:24.815Z,0.00
2019-02-21T05:26:24.592Z,0.00
2019-02-21T05:27:24.539Z,0.00
2019-02-21T05:28:24.514Z,0.00
2019-02-21T05:29:24.441Z,0.00
2019-02-21T05:30:24.600Z,0.00
2019-02-21T05:31:24.334Z,0.00
2019-02-21T05:32:24.282Z,0.00
2019-02-21T05:33:24.262Z,0.00
2019-02-21T05:34:24.185Z,0.00
2019-02-21T05:35:24.310Z,0.00
2019-02-21T05:36:24.075Z,0.00
2019-02-21T05:37:24.043Z,0.00
2019-02-21T05:38:24.086Z,0.00
2019-02-21T05:39:23.920Z,0.00
2019-02-21T05:40:24.115Z,0.00
2019-02-21T05:41:23.818Z,0.00
2019-02-21T05:42:23.766Z,0.00
2019-02-21T05:43:23.746Z,0.00
2019-02-21T05:44:23.661Z,0.00
2019-02-21T05:45:23.811Z,0.00
2019-02-21T05:46:23.559Z,0.00
2019-02-21T05:47:23.505Z,4.00
2019-02-21T05:48:23.537Z,4.00
2019-02-21T05:49:23.401Z,4.00
2019-02-21T05:50:23.515Z,4.00
2019-02-21T05:51:23.296Z,4.00
2019-02-21T05:52:23.246Z,4.00
2019-02-21T05:53:23.263Z,8.00
2019-02-21T05:54:23.142Z,8.00
2019-02-21T05:55:23.319Z,8.00
2019-02-21T05:56:23.042Z,12.00
2019-02-21T05:57:22.988Z,12.00
2019-02-21T05:58:22.961Z,16.00
2019-02-21T05:59:22.879Z,20.00
2019-02-21T06:00:23.021Z,24.00
2019-02-21T06:01:22.780Z,32.00
2019-02-21T06:02:22.724Z,32.00
2019-02-21T06:03:22.706Z,40.00
2019-02-21T06:04:22.621Z,48.00
2019-02-21T06:05:22.724Z,56.00
2019-02-21T06:06:22.520Z,64.00
2019-02-21T06:07:22.465Z,72.00
2019-02-21T06:08:22.444Z,84.00
2019-02-21T06:09:22.362Z,100.00
2019-02-21T06:10:22.533Z,116.00
2019-02-21T06:11:22.257Z,128.00
2019-02-21T06:12:33.217Z,148.00
2019-02-21T06:13:22.165Z,168.00
2019-02-21T06:14:22.100Z,188.00
2019-02-21T06:15:22.230Z,208.00
2019-02-21T06:16:22.000Z,232.00
2019-02-21T06:17:21.959Z,260.00
2019-02-21T06:18:21.904Z,288.00
2019-02-21T06:19:21.851Z,320.00
2019-02-21T06:20:21.787Z,352.00
2019-02-21T06:21:21.737Z,392.00
2019-02-21T06:22:21.694Z,432.00
2019-02-21T06:23:21.638Z,468.00
2019-02-21T06:24:21.589Z,512.00
2019-02-21T06:25:21.534Z,560.00
2019-02-21T06:26:21.480Z,604.00
2019-02-21T06:27:21.424Z,648.00
2019-02-21T06:28:21.379Z,692.00
2019-02-21T06:29:22.557Z,736.00
2019-02-21T06:30:21.273Z,776.00
2019-02-21T06:31:21.376Z,820.00
2019-02-21T06:32:21.164Z,860.00
2019-02-21T06:33:21.117Z,912.00
2019-02-21T06:34:21.069Z,964.00
2019-02-21T06:35:21.009Z,1016.00
2019-02-21T06:36:21.154Z,1064.00
2019-02-21T06:37:20.906Z,1108.00
2019-02-21T06:38:20.853Z,1148.00
2019-02-21T06:39:20.795Z,1200.00
2019-02-21T06:40:20.745Z,1248.00
2019-02-21T06:41:20.698Z,1304.00
2019-02-21T06:42:20.647Z,1352.00
2019-02-21T06:46:36.755Z,1580.00
2019-02-21T06:47:36.580Z,1624.00
2019-02-21T06:49:32.778Z,1712.00
2019-02-21T06:50:29.794Z,1752.00
2019-02-21T06:51:29.741Z,1804.00
2019-02-21T06:52:29.684Z,1852.00
2019-02-21T06:53:29.857Z,1908.00
2019-02-21T06:54:29.584Z,1968.00
2019-02-21T06:55:29.533Z,2040.00
2019-02-21T06:56:29.488Z,2108.00
2019-02-21T06:57:29.431Z,2188.00
2019-02-21T06:58:29.378Z,2272.00
2019-02-21T06:59:29.323Z,2352.00
2019-02-21T07:00:29.288Z,2416.00
2019-02-21T07:01:29.703Z,2500.00
2019-02-21T07:02:29.174Z,2584.00
2019-02-21T07:03:29.187Z,2660.00
2019-02-21T07:04:29.068Z,2744.00
2019-02-21T07:05:29.017Z,2832.00
2019-02-21T07:06:32.229Z,2920.00
2019-02-21T07:07:28.933Z,3020.00
2019-02-21T07:08:28.874Z,3116.00
2019-02-21T07:09:28.812Z,3204.00
2019-02-21T07:10:28.778Z,3308.00
2019-02-21T07:11:28.716Z,3412.00
2019-02-21T07:12:28.877Z,3504.00
2019-02-21T07:13:28.660Z,3604.00
2019-02-21T07:14:28.585Z,3716.00
2019-02-21T07:15:28.500Z,3792.00
2019-02-21T07:16:28.469Z,3864.00
2019-02-21T07:17:28.610Z,3932.00
2019-02-21T07:18:29.051Z,3980.00
2019-02-21T07:19:28.342Z,4020.00
2019-02-21T07:20:28.306Z,4060.00
2019-02-21T07:21:28.238Z,4108.00
2019-02-21T07:22:28.149Z,4152.00
2019-02-21T07:23:30.978Z,4232.00
2019-02-21T07:24:28.083Z,4304.00
2019-02-21T07:25:28.019Z,4368.00
2019-02-21T07:26:27.935Z,4420.00
2019-02-21T07:27:28.085Z,4504.00
2019-02-21T07:28:27.999Z,4588.00
2019-02-21T07:29:27.816Z,4660.00
2019-02-21T07:30:27.766Z,4744.00
2019-02-21T07:31:29.161Z,4844.00
2019-02-21T07:32:27.646Z,4920.00
2019-02-21T07:33:28.943Z,5012.00
2019-02-21T07:34:30.123Z,5084.00
2019-02-21T07:35:27.487Z,5144.00
2019-02-21T07:36:28.021Z,5192.00
2019-02-21T07:37:27.373Z,5212.00
2019-02-21T07:38:27.325Z,5248.00
2019-02-21T07:39:35.634Z,5300.00
2019-02-21T07:40:27.490Z,5364.00
2019-02-21T07:41:27.198Z,5432.00
2019-02-21T07:42:27.120Z,5492.00
2019-02-21T07:43:27.077Z,5436.00
2019-02-21T07:44:27.016Z,5540.00
2019-02-21T07:45:26.994Z,5660.00
2019-02-21T07:46:26.923Z,5756.00
2019-02-21T07:47:26.864Z,5840.00
2019-02-21T07:48:26.825Z,5816.00
2019-02-21T07:49:26.770Z,5800.00
2019-02-21T07:50:26.711Z,5760.00
2019-02-21T07:51:26.666Z,5780.00
2019-02-21T07:52:26.611Z,5820.00
2019-02-21T07:53:26.563Z,5824.00
2019-02-21T07:54:26.507Z,5884.00
2019-02-21T07:55:26.833Z,5892.00
2019-02-21T07:56:26.408Z,5964.00
2019-02-21T07:57:26.362Z,6072.00
2019-02-21T07:58:26.312Z,6168.00
2019-02-21T07:59:26.255Z,6240.00
2019-02-21T08:00:26.205Z,6280.00
2019-02-21T08:01:26.887Z,6344.00
2019-02-21T08:02:26.124Z,6372.00
2019-02-21T08:03:30.349Z,6432.00
2019-02-21T08:04:26.008Z,6472.00
2019-02-21T08:05:25.959Z,6516.00
2019-02-21T08:06:25.905Z,6572.00
2019-02-21T08:07:26.454Z,6612.00
2019-02-21T08:08:25.808Z,6604.00
2019-02-21T08:09:27.767Z,6656.00
2019-02-21T08:10:33.211Z,6688.00
2019-02-21T08:11:25.672Z,6752.00
2019-02-21T08:12:25.621Z,6832.00
2019-02-21T08:13:25.553Z,6968.00
2019-02-21T08:14:25.516Z,7060.00
2019-02-21T08:15:27.528Z,7028.00
2019-02-21T08:16:25.405Z,7024.00
2019-02-21T08:17:27.832Z,7144.00
2019-02-21T08:18:25.487Z,7244.00
2019-02-21T08:19:25.255Z,7016.00
2019-02-21T08:20:33.561Z,6512.00
2019-02-21T08:21:25.191Z,5920.00
2019-02-21T08:22:25.112Z,5240.00
2019-02-21T08:23:25.062Z,4704.00
2019-02-21T08:24:25.009Z,4480.00
2019-02-21T08:25:24.961Z,4544.00
2019-02-21T08:26:24.911Z,4536.00
2019-02-21T08:27:24.870Z,4428.00
2019-02-21T08:28:24.812Z,4408.00
2019-02-21T08:29:24.762Z,4376.00
2019-02-21T08:30:24.716Z,4448.00
2019-02-21T08:31:24.657Z,4512.00
2019-02-21T08:32:24.616Z,4552.00
2019-02-21T08:33:24.565Z,4748.00
2019-02-21T08:34:24.508Z,4776.00
2019-02-21T08:35:24.457Z,5016.00
2019-02-21T08:36:24.408Z,5396.00
2019-02-21T08:37:24.370Z,5920.00
2019-02-21T08:38:24.304Z,6180.00
2019-02-21T08:39:24.267Z,6140.00
2019-02-21T08:40:25.134Z,5836.00
2019-02-21T08:41:25.827Z,5508.00
2019-02-21T08:42:24.118Z,5028.00
2019-02-21T08:43:24.090Z,4236.00
2019-02-21T08:44:24.031Z,4180.00
2019-02-21T08:45:23.961Z,4284.00
2019-02-21T08:46:23.921Z,5212.00
2019-02-21T08:47:23.864Z,6376.00
2019-02-21T08:48:23.844Z,7304.00
2019-02-21T08:49:23.765Z,7444.00
2019-02-21T08:50:23.782Z,7844.00
2019-02-21T08:51:23.718Z,7924.00
2019-02-21T08:52:23.670Z,7980.00
2019-02-21T08:53:23.624Z,8028.00
2019-02-21T08:54:23.555Z,8264.00
2019-02-21T08:55:23.476Z,8588.00
2019-02-21T08:56:23.540Z,8892.00
2019-02-21T08:57:23.445Z,9432.00
2019-02-21T08:58:24.984Z,8792.00
2019-02-21T08:59:23.630Z,9704.00
2019-02-21T09:01:23.245Z,8112.00
2019-02-21T09:02:24.148Z,8020.00
2019-02-21T09:03:23.207Z,7340.00
2019-02-21T09:04:27.308Z,7164.00
2019-02-21T09:05:23.096Z,5884.00
2019-02-21T09:06:24.660Z,5188.00
2019-02-21T09:07:46.169Z,4720.00
2019-02-21T09:08:32.998Z,4372.00
2019-02-21T09:09:23.273Z,4016.00
2019-02-21T09:10:22.915Z,3756.00
2019-02-21T09:11:22.980Z,3648.00
2019-02-21T09:12:22.920Z,3716.00
2019-02-21T09:13:43.877Z,3840.00
2019-02-21T09:14:23.305Z,4092.00
2019-02-21T09:15:23.158Z,4632.00
2019-02-21T09:16:22.532Z,5228.00
2019-02-21T09:17:22.442Z,5892.00
2019-02-21T09:18:22.413Z,6776.00
2019-02-21T09:19:43.293Z,6900.00
2019-02-21T09:20:22.242Z,7124.00
2019-02-21T09:21:22.198Z,7436.00
2019-02-21T09:22:22.152Z,7492.00
2019-02-21T09:23:22.107Z,8404.00
2019-02-21T09:24:37.867Z,7420.00
2019-02-21T09:25:43.007Z,8128.00
2019-02-21T09:26:21.956Z,8884.00
2019-02-21T09:27:21.919Z,9572.00
2019-02-21T09:28:21.853Z,7904.00
2019-02-21T09:29:21.812Z,8468.00
2019-02-21T09:30:21.757Z,8800.00
2019-02-21T09:31:42.701Z,11272.00
2019-02-21T09:32:21.661Z,11284.00
2019-02-21T09:33:21.842Z,10920.00
2019-02-21T09:34:21.662Z,10688.00
2019-02-21T09:35:21.515Z,10040.00
2019-02-21T09:36:21.469Z,8136.00
2019-02-21T09:37:42.412Z,9164.00
2019-02-21T09:38:21.386Z,8408.00
2019-02-21T09:39:21.531Z,7880.00
2019-02-21T09:40:21.266Z,8284.00
2019-02-21T09:41:57.061Z,8080.00
2019-02-21T09:42:42.156Z,9376.00
2019-02-21T09:43:21.122Z,9040.00
2019-02-21T09:44:21.165Z,8572.00
2019-02-21T09:45:21.026Z,8336.00
2019-02-21T09:46:20.978Z,8012.00
2019-02-21T09:47:20.930Z,7572.00
2019-02-21T09:48:41.901Z,7368.00
2019-02-21T09:49:20.840Z,7500.00
2019-02-21T09:50:20.784Z,7300.00
2019-02-21T09:51:20.736Z,6936.00
2019-02-21T09:52:20.710Z,6796.00
2019-02-21T09:53:20.655Z,6524.00
2019-02-21T09:54:41.747Z,5840.00
2019-02-21T09:55:20.546Z,5176.00
2019-02-21T09:56:29.894Z,5492.00
2019-02-21T09:57:20.452Z,5576.00
2019-02-21T09:58:20.470Z,5592.00
2019-02-21T09:59:20.352Z,5500.00
2019-02-21T10:00:41.311Z,5604.00
2019-02-21T10:01:20.329Z,5740.00
2019-02-21T10:02:22.965Z,5768.00
2019-02-21T10:03:20.177Z,5604.00
2019-02-21T10:04:20.342Z,6048.00
2019-02-21T10:05:20.107Z,5536.00
2019-02-21T10:06:41.051Z,5192.00
2019-02-21T10:07:20.020Z,5064.00
2019-02-21T10:08:21.954Z,4856.00
2019-02-21T10:09:19.886Z,4872.00
2019-02-21T10:10:19.837Z,5144.00
2019-02-21T10:11:19.777Z,5328.00
2019-02-21T10:12:40.726Z,5348.00
2019-02-21T10:13:19.724Z,5096.00
2019-02-21T10:14:21.468Z,5172.00
2019-02-21T10:15:19.624Z,5752.00
2019-02-21T10:16:19.573Z,5576.00
2019-02-21T10:17:19.541Z,5668.00
2019-02-21T10:18:40.475Z,5236.00
2019-02-21T10:19:19.384Z,5512.00
2019-02-21T10:20:19.330Z,6336.00
2019-02-21T10:21:19.289Z,6780.00
2019-02-21T10:22:19.256Z,6808.00
2019-02-21T10:23:19.195Z,6932.00
2019-02-21T10:24:40.137Z,6376.00
2019-02-21T10:25:19.102Z,5584.00
2019-02-21T10:26:19.066Z,5712.00
2019-02-21T10:27:19.002Z,5984.00
2019-02-21T10:28:19.025Z,5588.00
2019-02-21T10:29:18.908Z,5332.00
2019-02-21T10:30:39.851Z,5372.00
2019-02-21T10:31:18.807Z,5348.00
2019-02-21T10:32:18.773Z,5436.00
2019-02-21T10:33:18.726Z,5428.00
2019-02-21T10:34:18.664Z,5708.00
2019-02-21T10:35:18.639Z,6136.00
2019-02-21T10:36:39.551Z,5948.00
2019-02-21T10:37:18.515Z,5548.00
2019-02-21T10:38:18.456Z,5572.00
2019-02-21T10:39:18.407Z,5620.00
2019-02-21T10:40:18.368Z,5540.00
2019-02-21T10:41:18.312Z,5628.00
2019-02-21T10:42:39.256Z,6396.00
2019-02-21T10:43:18.216Z,7264.00
2019-02-21T10:44:18.186Z,7420.00
2019-02-21T10:45:18.120Z,7048.00
2019-02-21T10:46:18.075Z,6848.00
2019-02-21T10:47:18.185Z,7256.00
2019-02-21T10:48:38.965Z,7296.00
2019-02-21T10:49:17.926Z,7136.00
2019-02-21T10:50:17.888Z,6764.00
2019-02-21T10:51:17.832Z,6784.00
2019-02-21T10:52:17.787Z,6772.00
2019-02-21T10:53:17.735Z,7048.00
2019-02-21T10:54:38.732Z,7484.00
2019-02-21T10:55:17.641Z,7584.00
2019-02-21T10:56:17.597Z,7784.00
2019-02-21T10:57:17.548Z,7652.00
2019-02-21T10:58:17.511Z,7168.00
2019-02-21T10:59:17.536Z,7340.00
2019-02-21T11:00:38.394Z,7212.00
2019-02-21T11:01:17.354Z,7172.00
2019-02-21T11:02:17.494Z,7040.00
2019-02-21T11:03:17.276Z,7016.00
2019-02-21T11:04:17.221Z,7168.00
2019-02-21T11:05:17.172Z,7752.00
2019-02-21T11:06:38.110Z,7792.00
2019-02-21T11:07:17.072Z,7968.00
2019-02-21T11:08:17.039Z,8020.00
2019-02-21T11:09:16.979Z,7932.00
2019-02-21T11:10:19.023Z,7748.00
2019-02-21T11:11:17.293Z,7436.00
2019-02-21T11:12:37.827Z,7192.00
2019-02-21T11:13:16.775Z,7160.00
2019-02-21T11:14:16.741Z,7136.00
2019-02-21T11:15:16.684Z,7204.00
2019-02-21T11:16:16.634Z,7276.00
2019-02-21T11:17:16.602Z,7388.00
2019-02-21T11:18:37.551Z,7368.00
2019-02-21T11:19:16.493Z,7360.00
2019-02-21T11:20:16.461Z,7460.00
2019-02-21T11:21:16.407Z,7120.00
2019-02-21T11:22:16.353Z,6940.00
2019-02-21T11:23:16.309Z,6928.00
2019-02-21T11:24:37.307Z,6992.00
2019-02-21T11:25:16.233Z,6984.00
2019-02-21T11:26:16.161Z,7020.00
2019-02-21T11:27:16.114Z,7004.00
2019-02-21T11:28:16.070Z,6992.00
2019-02-21T11:29:16.030Z,7012.00
2019-02-21T11:30:36.968Z,7052.00
2019-02-21T11:31:15.925Z,7080.00
2019-02-21T11:32:15.876Z,7104.00
2019-02-21T11:33:15.831Z,7140.00
2019-02-21T11:34:15.789Z,7176.00
2019-02-21T11:35:15.747Z,7244.00
2019-02-21T11:36:36.680Z,7296.00
2019-02-21T11:37:15.648Z,7360.00
2019-02-21T11:38:15.587Z,7408.00
2019-02-21T11:39:15.559Z,7452.00
2019-02-21T11:40:15.497Z,7492.00
2019-02-21T11:41:15.455Z,7548.00
2019-02-21T11:42:36.393Z,7596.00
2019-02-21T11:43:15.357Z,7628.00
2019-02-21T11:44:15.312Z,7640.00
2019-02-21T11:45:15.261Z,7624.00
2019-02-21T11:46:15.220Z,7588.00
2019-02-21T11:47:15.173Z,7540.00
2019-02-21T11:48:36.115Z,7460.00
2019-02-21T11:49:15.093Z,7424.00
2019-02-21T11:50:15.096Z,7268.00
2019-02-21T11:51:14.981Z,7196.00
2019-02-21T11:52:14.929Z,7396.00
2019-02-21T11:53:14.902Z,6868.00
2019-02-21T11:54:35.900Z,6784.00
2019-02-21T11:55:14.816Z,6712.00
2019-02-21T11:56:15.721Z,6620.00
2019-02-21T11:57:14.701Z,6256.00
2019-02-21T11:58:14.686Z,6204.00
2019-02-21T11:59:16.155Z,6112.00
2019-02-21T12:00:35.551Z,5844.00
2019-02-21T12:01:14.510Z,5644.00
2019-02-21T12:02:14.464Z,5368.00
2019-02-21T12:03:14.417Z,5044.00
2019-02-21T12:04:14.365Z,4848.00
2019-02-21T12:05:17.393Z,4688.00
2019-02-21T12:06:35.256Z,4516.00
2019-02-21T12:07:14.259Z,4356.00
2019-02-21T12:08:14.173Z,4232.00
2019-02-21T12:09:14.122Z,4144.00
2019-02-21T12:10:14.088Z,4116.00
2019-02-21T12:11:14.033Z,4180.00
2019-02-21T12:12:35.073Z,4320.00
2019-02-21T12:13:13.948Z,4508.00
2019-02-21T12:14:13.919Z,4636.00
2019-02-21T12:15:13.896Z,4792.00
2019-02-21T12:16:13.803Z,5236.00
2019-02-21T12:17:13.753Z,5368.00
2019-02-21T12:18:34.700Z,5232.00
2019-02-21T12:19:13.659Z,5224.00
2019-02-21T12:20:13.808Z,4856.00
2019-02-21T12:21:13.570Z,4944.00
2019-02-21T12:22:13.510Z,5116.00
2019-02-21T12:23:13.469Z,5080.00
2019-02-21T12:24:34.700Z,5028.00
2019-02-21T12:25:13.391Z,5020.00
2019-02-21T12:26:13.331Z,5092.00
2019-02-21T12:27:13.306Z,5064.00
2019-02-21T12:28:13.228Z,4964.00
2019-02-21T12:29:15.109Z,4944.00
2019-02-21T12:30:34.121Z,4868.00
2019-02-21T12:31:13.096Z,4900.00
2019-02-21T12:32:13.034Z,5020.00
2019-02-21T12:33:12.984Z,5320.00
2019-02-21T12:34:12.953Z,5728.00
2019-02-21T12:35:12.894Z,6080.00
2019-02-21T12:36:33.853Z,6036.00
2019-02-21T12:37:12.807Z,5940.00
2019-02-21T12:38:13.030Z,6268.00
2019-02-21T12:39:12.709Z,6908.00
2019-02-21T12:40:12.649Z,7364.00
2019-02-21T12:41:12.623Z,7336.00
2019-02-21T12:42:33.817Z,6884.00
2019-02-21T12:43:12.509Z,6264.00
2019-02-21T12:44:12.468Z,5752.00